KHUA/HUA METAR and TAF weather

Enter ICAO airport designator
Station Type Date Time Source
KHUA METAR 2018/12/15 01:58 UTC NOAA

KHUA 150158Z AUTO 19004KT 9SM OVC009 12/12 A2983 RMK AO2 RAE10 SLP102 P0002 T01240116


Station Type Date Time Source
KHUA Decoded METAR 2018/12/15 01:58 UTC NOAA

Station name not available
Dec 14, 2018 - 08:58 PM EST / 2018.12.15 0158 UTC
Wind: from the S (190 degrees) at 5 MPH (4 KT):0
Visibility: 9 mile(s):0
Sky conditions: overcast
Precipitation last hour: 0.02 inches
Temperature: 54.3 F (12.4 C)
Dew Point: 52.9 F (11.6 C)
Relative Humidity: 94%
Pressure (altimeter): 29.83 in. Hg (1010 hPa)
ob: KHUA 150158Z AUTO 19004KT 9SM OVC009 12/12 A2983 RMK AO2 RAE10 SLP102 P0002 T01240116
cycle: 2

Station Type Date Time Source
KHUA TAF UTC NOAA

Error!


Example: see airport list